sensor_id;sensor_type;location;lat;lon;timestamp;temperature;humidity
15636;DHT22;7917;50.818;6.972;2023-03-14T00:01:29;10.70;1.00
15636;DHT22;7917;50.818;6.972;2023-03-14T00:03:56;10.60;1.00
15636;DHT22;7917;50.818;6.972;2023-03-14T00:06:23;10.70;1.00
15636;DHT22;7917;50.818;6.972;2023-03-14T00:08:51;10.80;1.00
15636;DHT22;7917;50.818;6.972;2023-03-14T00:11:19;10.80;1.00
15636;DHT22;7917;50.818;6.972;2023-03-14T00:13:47;10.80;1.00
15636;DHT22;7917;50.818;6.972;2023-03-14T00:16:15;10.70;1.00
15636;DHT22;7917;50.818;6.972;2023-03-14T00:18:42;10.70;1.00
15636;DHT22;7917;50.818;6.972;2023-03-14T00:21:10;10.80;1.00
15636;DHT22;7917;50.818;6.972;2023-03-14T00:23:38;10.80;1.00
15636;DHT22;7917;50.818;6.972;2023-03-14T00:26:08;10.90;1.00
15636;DHT22;7917;50.818;6.972;2023-03-14T00:28:36;11.00;1.00
15636;DHT22;7917;50.818;6.972;2023-03-14T00:31:03;11.00;1.00
15636;DHT22;7917;50.818;6.972;2023-03-14T00:33:30;11.10;1.00
15636;DHT22;7917;50.818;6.972;2023-03-14T00:35:59;11.10;99.90
15636;DHT22;7917;50.818;6.972;2023-03-14T00:38:26;11.30;99.90
15636;DHT22;7917;50.818;6.972;2023-03-14T00:40:53;11.40;99.90
15636;DHT22;7917;50.818;6.972;2023-03-14T00:43:21;11.40;99.90
15636;DHT22;7917;50.818;6.972;2023-03-14T00:45:48;11.30;99.90
15636;DHT22;7917;50.818;6.972;2023-03-14T00:48:19;11.40;99.90
15636;DHT22;7917;50.818;6.972;2023-03-14T00:50:46;11.40;99.90
15636;DHT22;7917;50.818;6.972;2023-03-14T00:53:13;11.40;99.90
15636;DHT22;7917;50.818;6.972;2023-03-14T00:55:40;11.40;99.90
15636;DHT22;7917;50.818;6.972;2023-03-14T00:58:08;11.30;99.90
15636;DHT22;7917;50.818;6.972;2023-03-14T01:00:36;11.30;99.90
15636;DHT22;7917;50.818;6.972;2023-03-14T01:03:03;11.40;99.90
15636;DHT22;7917;50.818;6.972;2023-03-14T01:05:30;11.40;99.90
15636;DHT22;7917;50.818;6.972;2023-03-14T01:07:57;11.50;99.90
15636;DHT22;7917;50.818;6.972;2023-03-14T01:10:24;11.40;99.90
15636;DHT22;7917;50.818;6.972;2023-03-14T01:12:51;11.40;99.90
15636;DHT22;7917;50.818;6.972;2023-03-14T01:15:18;11.30;99.90
15636;DHT22;7917;50.818;6.972;2023-03-14T01:17:45;11.30;99.90
15636;DHT22;7917;50.818;6.972;2023-03-14T01:20:13;11.30;1.00
15636;DHT22;7917;50.818;6.972;2023-03-14T01:22:41;11.30;1.00
15636;DHT22;7917;50.818;6.972;2023-03-14T01:25:10;11.20;1.00
15636;DHT22;7917;50.818;6.972;2023-03-14T01:27:36;11.20;1.00
15636;DHT22;7917;50.818;6.972;2023-03-14T01:30:04;11.20;1.00
15636;DHT22;7917;50.818;6.972;2023-03-14T01:32:31;11.20;1.00
15636;DHT22;7917;50.818;6.972;2023-03-14T01:34:58;11.10;1.00
15636;DHT22;7917;50.818;6.972;2023-03-14T01:37:25;11.00;99.90
15636;DHT22;7917;50.818;6.972;2023-03-14T01:39:51;10.80;1.00
15636;DHT22;7917;50.818;6.972;2023-03-14T01:42:18;10.60;34.20
15636;DHT22;7917;50.818;6.972;2023-03-14T01:44:52;10.50;99.90
15636;DHT22;7917;50.818;6.972;2023-03-14T01:47:20;10.40;1.00
15636;DHT22;7917;50.818;6.972;2023-03-14T01:49:48;10.20;99.90
15636;DHT22;7917;50.818;6.972;2023-03-14T01:52:19;10.20;99.90
15636;DHT22;7917;50.818;6.972;2023-03-14T01:54:51;10.00;1.00
15636;DHT22;7917;50.818;6.972;2023-03-14T01:57:22;9.90;1.00
15636;DHT22;7917;50.818;6.972;2023-03-14T01:59:53;9.80;1.00
15636;DHT22;7917;50.818;6.972;2023-03-14T02:02:21;9.70;1.00
15636;DHT22;7917;50.818;6.972;2023-03-14T02:04:48;9.60;99.90
15636;DHT22;7917;50.818;6.972;2023-03-14T02:07:18;9.50;99.90
15636;DHT22;7917;50.818;6.972;2023-03-14T02:09:46;9.40;1.00
15636;DHT22;7917;50.818;6.972;2023-03-14T02:12:16;9.30;1.00
15636;DHT22;7917;50.818;6.972;2023-03-14T02:14:43;9.20;1.00
15636;DHT22;7917;50.818;6.972;2023-03-14T02:17:14;9.10;1.00
15636;DHT22;7917;50.818;6.972;2023-03-14T02:19:58;9.10;99.90
15636;DHT22;7917;50.818;6.972;2023-03-14T02:22:27;9.10;99.90
15636;DHT22;7917;50.818;6.972;2023-03-14T02:24:59;9.00;1.00
15636;DHT22;7917;50.818;6.972;2023-03-14T02:27:28;9.00;99.90
15636;DHT22;7917;50.818;6.972;2023-03-14T02:29:57;8.90;1.00
15636;DHT22;7917;50.818;6.972;2023-03-14T02:32:26;8.90;1.00
15636;DHT22;7917;50.818;6.972;2023-03-14T02:34:55;8.80;1.00
15636;DHT22;7917;50.818;6.972;2023-03-14T02:37:26;8.70;1.00
15636;DHT22;7917;50.818;6.972;2023-03-14T02:39:53;8.60;1.00
15636;DHT22;7917;50.818;6.972;2023-03-14T02:42:21;8.50;1.00
15636;DHT22;7917;50.818;6.972;2023-03-14T02:44:51;8.40;12.90
15636;DHT22;7917;50.818;6.972;2023-03-14T02:47:20;8.30;99.90
15636;DHT22;7917;50.818;6.972;2023-03-14T02:49:48;8.20;99.90
15636;DHT22;7917;50.818;6.972;2023-03-14T02:52:15;8.30;99.90
15636;DHT22;7917;50.818;6.972;2023-03-14T02:54:44;8.30;99.90
15636;DHT22;7917;50.818;6.972;2023-03-14T02:57:13;8.40;99.90
15636;DHT22;7917;50.818;6.972;2023-03-14T02:59:40;8.40;99.90
15636;DHT22;7917;50.818;6.972;2023-03-14T03:02:07;8.40;99.90
15636;DHT22;7917;50.818;6.972;2023-03-14T03:04:33;8.50;99.90
15636;DHT22;7917;50.818;6.972;2023-03-14T03:07:00;8.40;99.90
15636;DHT22;7917;50.818;6.972;2023-03-14T03:09:29;8.40;99.90
15636;DHT22;7917;50.818;6.972;2023-03-14T03:11:55;8.50;99.90
15636;DHT22;7917;50.818;6.972;2023-03-14T03:14:22;8.60;99.90
15636;DHT22;7917;50.818;6.972;2023-03-14T03:16:48;8.70;99.90
15636;DHT22;7917;50.818;6.972;2023-03-14T03:19:19;8.80;99.90
15636;DHT22;7917;50.818;6.972;2023-03-14T03:21:46;8.90;1.00
15636;DHT22;7917;50.818;6.972;2023-03-14T03:24:12;9.00;1.00
15636;DHT22;7917;50.818;6.972;2023-03-14T03:26:39;9.00;99.90
15636;DHT22;7917;50.818;6.972;2023-03-14T03:29:05;9.20;2.10
15636;DHT22;7917;50.818;6.972;2023-03-14T03:31:32;9.40;1.00
15636;DHT22;7917;50.818;6.972;2023-03-14T03:33:58;9.50;99.90
15636;DHT22;7917;50.818;6.972;2023-03-14T03:36:28;9.50;1.00
15636;DHT22;7917;50.818;6.972;2023-03-14T03:38:55;9.60;1.00
15636;DHT22;7917;50.818;6.972;2023-03-14T03:41:21;9.60;1.00
15636;DHT22;7917;50.818;6.972;2023-03-14T03:43:48;9.60;1.00
15636;DHT22;7917;50.818;6.972;2023-03-14T03:46:15;9.60;99.90
15636;DHT22;7917;50.818;6.972;2023-03-14T03:48:41;9.70;52.20
15636;DHT22;7917;50.818;6.972;2023-03-14T03:51:12;9.70;1.00
15636;DHT22;7917;50.818;6.972;2023-03-14T03:53:40;9.70;1.00
15636;DHT22;7917;50.818;6.972;2023-03-14T03:56:07;9.70;1.00
15636;DHT22;7917;50.818;6.972;2023-03-14T03:58:34;9.70;1.00
15636;DHT22;7917;50.818;6.972;2023-03-14T04:01:10;9.80;1.00
15636;DHT22;7917;50.818;6.972;2023-03-14T04:03:43;9.90;1.00
15636;DHT22;7917;50.818;6.972;2023-03-14T04:06:11;9.90;1.00
15636;DHT22;7917;50.818;6.972;2023-03-14T04:08:39;9.80;1.00
15636;DHT22;7917;50.818;6.972;2023-03-14T04:11:07;9.80;1.00
15636;DHT22;7917;50.818;6.972;2023-03-14T04:13:33;9.80;6.60
15636;DHT22;7917;50.818;6.972;2023-03-14T04:16:00;9.80;58.80
15636;DHT22;7917;50.818;6.972;2023-03-14T04:18:27;9.70;63.60
15636;DHT22;7917;50.818;6.972;2023-03-14T04:20:57;9.70;99.90
15636;DHT22;7917;50.818;6.972;2023-03-14T04:23:24;9.70;99.90
15636;DHT22;7917;50.818;6.972;2023-03-14T04:25:52;9.70;99.90
15636;DHT22;7917;50.818;6.972;2023-03-14T04:28:19;9.70;99.90
15636;DHT22;7917;50.818;6.972;2023-03-14T04:31:07;9.60;1.00
15636;DHT22;7917;50.818;6.972;2023-03-14T04:33:34;9.70;1.00
15636;DHT22;7917;50.818;6.972;2023-03-14T04:36:01;9.70;1.00
15636;DHT22;7917;50.818;6.972;2023-03-14T04:38:28;9.70;1.00
15636;DHT22;7917;50.818;6.972;2023-03-14T04:40:55;9.60;1.00
15636;DHT22;7917;50.818;6.972;2023-03-14T04:43:22;9.60;1.00
15636;DHT22;7917;50.818;6.972;2023-03-14T04:45:48;9.60;99.90
15636;DHT22;7917;50.818;6.972;2023-03-14T04:48:15;9.50;1.00
15636;DHT22;7917;50.818;6.972;2023-03-14T04:50:41;9.50;1.00
15636;DHT22;7917;50.818;6.972;2023-03-14T04:53:08;9.50;99.90
15636;DHT22;7917;50.818;6.972;2023-03-14T04:55:35;9.40;1.00
15636;DHT22;7917;50.818;6.972;2023-03-14T04:58:02;9.40;99.90
15636;DHT22;7917;50.818;6.972;2023-03-14T05:00:29;9.40;94.10
15636;DHT22;7917;50.818;6.972;2023-03-14T05:02:55;9.40;99.90
15636;DHT22;7917;50.818;6.972;2023-03-14T05:05:22;9.40;99.90
15636;DHT22;7917;50.818;6.972;2023-03-14T05:07:48;9.40;1.00
15636;DHT22;7917;50.818;6.972;2023-03-14T05:10:15;9.40;1.00
15636;DHT22;7917;50.818;6.972;2023-03-14T05:12:42;9.50;99.90
15636;DHT22;7917;50.818;6.972;2023-03-14T05:15:09;9.50;99.90
15636;DHT22;7917;50.818;6.972;2023-03-14T05:17:36;9.50;99.90
15636;DHT22;7917;50.818;6.972;2023-03-14T05:20:03;9.60;1.00
15636;DHT22;7917;50.818;6.972;2023-03-14T05:22:34;9.60;1.00
15636;DHT22;7917;50.818;6.972;2023-03-14T05:25:00;9.60;1.00
15636;DHT22;7917;50.818;6.972;2023-03-14T05:27:27;9.70;97.50
15636;DHT22;7917;50.818;6.972;2023-03-14T05:29:53;9.70;1.00
15636;DHT22;7917;50.818;6.972;2023-03-14T05:32:21;9.70;1.00
15636;DHT22;7917;50.818;6.972;2023-03-14T05:34:47;9.70;99.90
15636;DHT22;7917;50.818;6.972;2023-03-14T05:37:14;9.70;99.90
15636;DHT22;7917;50.818;6.972;2023-03-14T05:39:40;9.60;99.90
15636;DHT22;7917;50.818;6.972;2023-03-14T05:42:07;9.70;99.90
15636;DHT22;7917;50.818;6.972;2023-03-14T05:44:34;9.70;1.00
15636;DHT22;7917;50.818;6.972;2023-03-14T05:47:00;9.70;99.90
15636;DHT22;7917;50.818;6.972;2023-03-14T05:49:34;9.70;99.90
15636;DHT22;7917;50.818;6.972;2023-03-14T05:52:00;9.70;99.90
15636;DHT22;7917;50.818;6.972;2023-03-14T05:54:27;9.60;1.00
15636;DHT22;7917;50.818;6.972;2023-03-14T05:56:54;9.60;1.00
15636;DHT22;7917;50.818;6.972;2023-03-14T05:59:20;9.60;96.90
15636;DHT22;7917;50.818;6.972;2023-03-14T06:01:47;9.60;99.90
15636;DHT22;7917;50.818;6.972;2023-03-14T06:04:13;9.60;99.90
15636;DHT22;7917;50.818;6.972;2023-03-14T06:06:41;9.60;1.00
15636;DHT22;7917;50.818;6.972;2023-03-14T06:09:07;9.60;99.90
15636;DHT22;7917;50.818;6.972;2023-03-14T06:11:35;9.60;99.90
15636;DHT22;7917;50.818;6.972;2023-03-14T06:14:01;9.60;1.00
15636;DHT22;7917;50.818;6.972;2023-03-14T06:16:31;9.60;1.00
15636;DHT22;7917;50.818;6.972;2023-03-14T06:18:58;9.50;1.00
15636;DHT22;7917;50.818;6.972;2023-03-14T06:21:25;9.60;99.90
15636;DHT22;7917;50.818;6.972;2023-03-14T06:23:52;9.50;99.90
15636;DHT22;7917;50.818;6.972;2023-03-14T06:26:19;9.50;99.90
15636;DHT22;7917;50.818;6.972;2023-03-14T06:28:46;9.50;99.90
15636;DHT22;7917;50.818;6.972;2023-03-14T06:31:12;9.50;99.90
15636;DHT22;7917;50.818;6.972;2023-03-14T06:33:39;9.60;99.90
15636;DHT22;7917;50.818;6.972;2023-03-14T06:36:06;9.70;1.00
15636;DHT22;7917;50.818;6.972;2023-03-14T06:41:56;9.80;99.90
15636;DHT22;7917;50.818;6.972;2023-03-14T06:44:22;9.80;99.90
15636;DHT22;7917;50.818;6.972;2023-03-14T06:46:49;9.90;99.90
15636;DHT22;7917;50.818;6.972;2023-03-14T06:49:15;9.90;99.90
15636;DHT22;7917;50.818;6.972;2023-03-14T06:51:42;9.90;99.90
15636;DHT22;7917;50.818;6.972;2023-03-14T06:54:09;9.90;99.90
15636;DHT22;7917;50.818;6.972;2023-03-14T06:56:35;10.00;99.90
15636;DHT22;7917;50.818;6.972;2023-03-14T06:59:03;10.20;6.00
15636;DHT22;7917;50.818;6.972;2023-03-14T07:01:35;10.40;1.00
15636;DHT22;7917;50.818;6.972;2023-03-14T07:04:02;10.50;99.90
15636;DHT22;7917;50.818;6.972;2023-03-14T07:06:29;10.50;1.00
15636;DHT22;7917;50.818;6.972;2023-03-14T07:08:56;10.50;59.60
15636;DHT22;7917;50.818;6.972;2023-03-14T07:11:23;10.40;1.00
15636;DHT22;7917;50.818;6.972;2023-03-14T07:13:50;10.30;99.90
15636;DHT22;7917;50.818;6.972;2023-03-14T07:16:20;10.50;99.90
15636;DHT22;7917;50.818;6.972;2023-03-14T07:18:46;10.70;1.00
15636;DHT22;7917;50.818;6.972;2023-03-14T07:21:15;11.00;1.00
15636;DHT22;7917;50.818;6.972;2023-03-14T07:23:41;11.10;1.00
15636;DHT22;7917;50.818;6.972;2023-03-14T07:26:08;11.30;1.00
15636;DHT22;7917;50.818;6.972;2023-03-14T07:28:35;11.40;99.90
15636;DHT22;7917;50.818;6.972;2023-03-14T07:31:01;11.60;1.00
15636;DHT22;7917;50.818;6.972;2023-03-14T07:33:29;11.60;1.90
15636;DHT22;7917;50.818;6.972;2023-03-14T07:35:56;11.60;30.30
15636;DHT22;7917;50.818;6.972;2023-03-14T07:38:23;11.50;98.00
15636;DHT22;7917;50.818;6.972;2023-03-14T07:40:49;11.40;99.90
15636;DHT22;7917;50.818;6.972;2023-03-14T07:43:16;11.60;80.90
15636;DHT22;7917;50.818;6.972;2023-03-14T07:45:45;11.70;99.90
15636;DHT22;7917;50.818;6.972;2023-03-14T07:48:15;11.80;1.00
15636;DHT22;7917;50.818;6.972;2023-03-14T07:50:43;11.80;1.00
15636;DHT22;7917;50.818;6.972;2023-03-14T07:53:10;11.90;1.00
15636;DHT22;7917;50.818;6.972;2023-03-14T07:55:36;11.80;1.00
15636;DHT22;7917;50.818;6.972;2023-03-14T07:58:03;11.80;45.50
15636;DHT22;7917;50.818;6.972;2023-03-14T08:00:29;11.80;1.00
15636;DHT22;7917;50.818;6.972;2023-03-14T08:02:56;11.90;1.00
15636;DHT22;7917;50.818;6.972;2023-03-14T08:05:22;12.00;1.00
15636;DHT22;7917;50.818;6.972;2023-03-14T08:07:53;12.10;1.00
15636;DHT22;7917;50.818;6.972;2023-03-14T08:10:20;12.20;1.00
15636;DHT22;7917;50.818;6.972;2023-03-14T08:12:49;12.20;1.00
15636;DHT22;7917;50.818;6.972;2023-03-14T08:15:16;12.20;1.00
15636;DHT22;7917;50.818;6.972;2023-03-14T08:17:45;12.30;1.00
15636;DHT22;7917;50.818;6.972;2023-03-14T08:20:16;12.30;1.00
15636;DHT22;7917;50.818;6.972;2023-03-14T08:22:43;12.40;1.00
15636;DHT22;7917;50.818;6.972;2023-03-14T08:25:10;12.30;1.00
15636;DHT22;7917;50.818;6.972;2023-03-14T08:27:37;12.30;1.00
15636;DHT22;7917;50.818;6.972;2023-03-14T08:30:05;12.30;1.00
15636;DHT22;7917;50.818;6.972;2023-03-14T08:32:34;12.40;1.00
15636;DHT22;7917;50.818;6.972;2023-03-14T08:35:05;12.40;1.00
15636;DHT22;7917;50.818;6.972;2023-03-14T08:37:32;12.30;1.00
15636;DHT22;7917;50.818;6.972;2023-03-14T08:40:00;12.20;1.00
15636;DHT22;7917;50.818;6.972;2023-03-14T08:42:33;12.20;1.00
15636;DHT22;7917;50.818;6.972;2023-03-14T08:44:59;12.20;1.00
15636;DHT22;7917;50.818;6.972;2023-03-14T08:47:26;12.10;1.00
15636;DHT22;7917;50.818;6.972;2023-03-14T08:49:53;12.20;1.00
15636;DHT22;7917;50.818;6.972;2023-03-14T08:52:19;12.30;1.00
15636;DHT22;7917;50.818;6.972;2023-03-14T08:54:46;12.20;1.00
15636;DHT22;7917;50.818;6.972;2023-03-14T08:57:14;12.20;1.00
15636;DHT22;7917;50.818;6.972;2023-03-14T08:59:41;12.10;1.00
15636;DHT22;7917;50.818;6.972;2023-03-14T09:02:09;12.10;1.00
15636;DHT22;7917;50.818;6.972;2023-03-14T09:04:37;12.10;1.00
15636;DHT22;7917;50.818;6.972;2023-03-14T09:07:03;12.10;1.00
15636;DHT22;7917;50.818;6.972;2023-03-14T09:09:30;12.10;1.00
15636;DHT22;7917;50.818;6.972;2023-03-14T09:12:02;12.20;1.00
15636;DHT22;7917;50.818;6.972;2023-03-14T09:14:30;12.10;24.00
15636;DHT22;7917;50.818;6.972;2023-03-14T09:16:58;12.00;99.90
15636;DHT22;7917;50.818;6.972;2023-03-14T09:19:25;12.10;99.90
15636;DHT22;7917;50.818;6.972;2023-03-14T09:21:52;12.10;99.90
15636;DHT22;7917;50.818;6.972;2023-03-14T09:24:20;12.00;99.90
15636;DHT22;7917;50.818;6.972;2023-03-14T09:26:49;11.90;1.00
15636;DHT22;7917;50.818;6.972;2023-03-14T09:29:15;11.80;1.00
15636;DHT22;7917;50.818;6.972;2023-03-14T09:31:42;11.80;15.30
15636;DHT22;7917;50.818;6.972;2023-03-14T09:34:09;11.70;1.00
15636;DHT22;7917;50.818;6.972;2023-03-14T09:36:36;11.70;99.90
15636;DHT22;7917;50.818;6.972;2023-03-14T09:39:03;11.60;99.90
15636;DHT22;7917;50.818;6.972;2023-03-14T09:41:33;11.50;1.00
15636;DHT22;7917;50.818;6.972;2023-03-14T09:44:04;11.40;99.90
15636;DHT22;7917;50.818;6.972;2023-03-14T09:46:32;11.30;1.00
15636;DHT22;7917;50.818;6.972;2023-03-14T09:49:02;11.20;1.00
15636;DHT22;7917;50.818;6.972;2023-03-14T09:51:29;11.00;99.90
15636;DHT22;7917;50.818;6.972;2023-03-14T09:53:57;10.10;99.90
15636;DHT22;7917;50.818;6.972;2023-03-14T09:56:26;9.30;99.90
15636;DHT22;7917;50.818;6.972;2023-03-14T09:58:55;8.90;1.00
15636;DHT22;7917;50.818;6.972;2023-03-14T10:01:25;8.70;99.90
15636;DHT22;7917;50.818;6.972;2023-03-14T10:03:55;8.60;99.90
15636;DHT22;7917;50.818;6.972;2023-03-14T10:06:24;8.50;1.00
15636;DHT22;7917;50.818;6.972;2023-03-14T10:08:54;8.50;1.00
15636;DHT22;7917;50.818;6.972;2023-03-14T10:11:23;8.50;1.00
15636;DHT22;7917;50.818;6.972;2023-03-14T10:14:03;8.60;1.00
15636;DHT22;7917;50.818;6.972;2023-03-14T10:16:31;8.60;99.90
15636;DHT22;7917;50.818;6.972;2023-03-14T10:19:03;8.50;99.90
15636;DHT22;7917;50.818;6.972;2023-03-14T10:21:32;8.30;44.00
15636;DHT22;7917;50.818;6.972;2023-03-14T10:24:09;8.30;99.90
15636;DHT22;7917;50.818;6.972;2023-03-14T10:26:36;8.30;1.00
15636;DHT22;7917;50.818;6.972;2023-03-14T10:29:08;8.40;99.90
15636;DHT22;7917;50.818;6.972;2023-03-14T10:31:47;8.40;99.90
15636;DHT22;7917;50.818;6.972;2023-03-14T10:34:17;8.40;99.90
15636;DHT22;7917;50.818;6.972;2023-03-14T10:36:44;8.40;1.00
15636;DHT22;7917;50.818;6.972;2023-03-14T10:39:26;8.30;1.00
15636;DHT22;7917;50.818;6.972;2023-03-14T10:41:54;8.40;1.00
15636;DHT22;7917;50.818;6.972;2023-03-14T10:44:23;8.20;99.90
15636;DHT22;7917;50.818;6.972;2023-03-14T10:46:57;8.20;99.90
15636;DHT22;7917;50.818;6.972;2023-03-14T10:49:31;8.20;1.00
15636;DHT22;7917;50.818;6.972;2023-03-14T10:52:02;8.30;99.90
15636;DHT22;7917;50.818;6.972;2023-03-14T10:54:39;8.30;99.90
15636;DHT22;7917;50.818;6.972;2023-03-14T10:57:06;8.40;99.90
15636;DHT22;7917;50.818;6.972;2023-03-14T10:59:36;8.60;40.60
15636;DHT22;7917;50.818;6.972;2023-03-14T11:02:10;8.70;99.90
15636;DHT22;7917;50.818;6.972;2023-03-14T11:04:55;8.60;1.00
15636;DHT22;7917;50.818;6.972;2023-03-14T11:07:28;8.50;99.90
15636;DHT22;7917;50.818;6.972;2023-03-14T11:10:00;8.40;99.90
15636;DHT22;7917;50.818;6.972;2023-03-14T11:12:45;8.40;99.90
15636;DHT22;7917;50.818;6.972;2023-03-14T11:15:18;8.40;1.00
15636;DHT22;7917;50.818;6.972;2023-03-14T11:17:53;8.60;74.60
15636;DHT22;7917;50.818;6.972;2023-03-14T11:20:33;8.70;1.00
15636;DHT22;7917;50.818;6.972;2023-03-14T11:23:07;8.80;99.90
15636;DHT22;7917;50.818;6.972;2023-03-14T11:25:43;9.00;24.20
15636;DHT22;7917;50.818;6.972;2023-03-14T11:28:18;9.20;99.90
15636;DHT22;7917;50.818;6.972;2023-03-14T11:30:51;9.40;1.00
15636;DHT22;7917;50.818;6.972;2023-03-14T11:33:22;9.70;99.90
15636;DHT22;7917;50.818;6.972;2023-03-14T11:35:58;9.90;1.00
15636;DHT22;7917;50.818;6.972;2023-03-14T11:38:30;9.90;1.00
15636;DHT22;7917;50.818;6.972;2023-03-14T11:41:00;9.70;1.00
15636;DHT22;7917;50.818;6.972;2023-03-14T11:43:29;10.00;99.90
15636;DHT22;7917;50.818;6.972;2023-03-14T11:46:01;10.10;45.90
15636;DHT22;7917;50.818;6.972;2023-03-14T11:48:38;9.90;1.00
15636;DHT22;7917;50.818;6.972;2023-03-14T11:51:17;9.70;1.00
15636;DHT22;7917;50.818;6.972;2023-03-14T11:53:57;9.50;1.00
15636;DHT22;7917;50.818;6.972;2023-03-14T11:56:31;9.50;5.30
15636;DHT22;7917;50.818;6.972;2023-03-14T11:59:01;9.60;1.00
15636;DHT22;7917;50.818;6.972;2023-03-14T12:01:45;9.50;1.00
15636;DHT22;7917;50.818;6.972;2023-03-14T12:04:28;8.60;1.00
15636;DHT22;7917;50.818;6.972;2023-03-14T12:07:02;7.80;1.00
15636;DHT22;7917;50.818;6.972;2023-03-14T12:09:29;7.40;99.90
15636;DHT22;7917;50.818;6.972;2023-03-14T12:11:58;7.20;99.90
15636;DHT22;7917;50.818;6.972;2023-03-14T12:14:27;7.10;99.90
15636;DHT22;7917;50.818;6.972;2023-03-14T12:16:57;7.10;99.90
15636;DHT22;7917;50.818;6.972;2023-03-14T12:19:33;7.20;1.00
15636;DHT22;7917;50.818;6.972;2023-03-14T12:22:17;7.20;99.90
15636;DHT22;7917;50.818;6.972;2023-03-14T12:24:49;7.40;1.00
15636;DHT22;7917;50.818;6.972;2023-03-14T12:30:28;7.60;1.00
15636;DHT22;7917;50.818;6.972;2023-03-14T12:33:21;7.70;1.00
15636;DHT22;7917;50.818;6.972;2023-03-14T12:35:58;7.80;1.00
15636;DHT22;7917;50.818;6.972;2023-03-14T12:41:15;8.00;99.90
15636;DHT22;7917;50.818;6.972;2023-03-14T12:43:43;8.00;1.00
15636;DHT22;7917;50.818;6.972;2023-03-14T12:46:22;8.00;1.00
15636;DHT22;7917;50.818;6.972;2023-03-14T12:48:53;8.00;1.00
15636;DHT22;7917;50.818;6.972;2023-03-14T12:51:28;8.00;99.90
15636;DHT22;7917;50.818;6.972;2023-03-14T12:57:06;7.90;99.90
15636;DHT22;7917;50.818;6.972;2023-03-14T12:59:38;7.90;5.50
15636;DHT22;7917;50.818;6.972;2023-03-14T13:02:23;7.70;1.00
15636;DHT22;7917;50.818;6.972;2023-03-14T13:04:53;7.50;1.00
15636;DHT22;7917;50.818;6.972;2023-03-14T13:07:34;7.30;73.20
15636;DHT22;7917;50.818;6.972;2023-03-14T13:10:05;7.20;99.90
15636;DHT22;7917;50.818;6.972;2023-03-14T13:12:45;7.00;1.00
15636;DHT22;7917;50.818;6.972;2023-03-14T13:15:19;6.90;99.90
15636;DHT22;7917;50.818;6.972;2023-03-14T13:17:48;6.80;1.00
15636;DHT22;7917;50.818;6.972;2023-03-14T13:20:20;6.90;29.60
15636;DHT22;7917;50.818;6.972;2023-03-14T13:22:49;6.80;55.30
15636;DHT22;7917;50.818;6.972;2023-03-14T13:25:16;6.90;79.20
15636;DHT22;7917;50.818;6.972;2023-03-14T13:27:44;6.90;1.00
15636;DHT22;7917;50.818;6.972;2023-03-14T13:30:23;6.90;1.00
15636;DHT22;7917;50.818;6.972;2023-03-14T13:32:53;6.90;99.90
15636;DHT22;7917;50.818;6.972;2023-03-14T13:35:23;6.80;99.90
15636;DHT22;7917;50.818;6.972;2023-03-14T13:37:56;6.60;99.90
15636;DHT22;7917;50.818;6.972;2023-03-14T13:40:30;6.60;99.90
15636;DHT22;7917;50.818;6.972;2023-03-14T13:43:10;6.80;1.00
15636;DHT22;7917;50.818;6.972;2023-03-14T13:46:00;6.90;99.90
15636;DHT22;7917;50.818;6.972;2023-03-14T13:51:50;7.10;99.90
15636;DHT22;7917;50.818;6.972;2023-03-14T13:54:18;7.10;1.00
15636;DHT22;7917;50.818;6.972;2023-03-14T13:56:46;7.10;99.90
15636;DHT22;7917;50.818;6.972;2023-03-14T13:59:23;7.00;1.00
15636;DHT22;7917;50.818;6.972;2023-03-14T14:01:50;6.40;1.00
15636;DHT22;7917;50.818;6.972;2023-03-14T14:04:19;6.20;1.00
15636;DHT22;7917;50.818;6.972;2023-03-14T14:06:52;6.00;1.00
15636;DHT22;7917;50.818;6.972;2023-03-14T14:09:22;5.80;1.00
15636;DHT22;7917;50.818;6.972;2023-03-14T14:11:53;5.80;99.90
15636;DHT22;7917;50.818;6.972;2023-03-14T14:14:25;5.80;1.00
15636;DHT22;7917;50.818;6.972;2023-03-14T14:16:53;5.70;1.00
15636;DHT22;7917;50.818;6.972;2023-03-14T14:19:22;5.80;99.90
15636;DHT22;7917;50.818;6.972;2023-03-14T14:21:51;5.80;1.00
15636;DHT22;7917;50.818;6.972;2023-03-14T14:24:21;5.80;1.00
15636;DHT22;7917;50.818;6.972;2023-03-14T14:26:51;5.90;1.00
15636;DHT22;7917;50.818;6.972;2023-03-14T14:29:27;6.00;1.00
15636;DHT22;7917;50.818;6.972;2023-03-14T14:32:02;6.10;99.90
15636;DHT22;7917;50.818;6.972;2023-03-14T14:34:39;6.20;1.00
15636;DHT22;7917;50.818;6.972;2023-03-14T14:37:18;6.30;1.00
15636;DHT22;7917;50.818;6.972;2023-03-14T14:39:46;6.50;1.00
15636;DHT22;7917;50.818;6.972;2023-03-14T14:42:14;6.60;1.00
15636;DHT22;7917;50.818;6.972;2023-03-14T14:44:42;6.70;1.00
15636;DHT22;7917;50.818;6.972;2023-03-14T14:47:13;6.80;1.00
15636;DHT22;7917;50.818;6.972;2023-03-14T14:49:40;6.80;1.00
15636;DHT22;7917;50.818;6.972;2023-03-14T14:52:11;6.80;1.00
15636;DHT22;7917;50.818;6.972;2023-03-14T14:54:44;6.80;1.00
15636;DHT22;7917;50.818;6.972;2023-03-14T14:57:19;6.80;99.90
15636;DHT22;7917;50.818;6.972;2023-03-14T14:59:48;6.80;99.90
15636;DHT22;7917;50.818;6.972;2023-03-14T15:02:28;6.80;36.40
15636;DHT22;7917;50.818;6.972;2023-03-14T15:04:55;6.90;1.00
15636;DHT22;7917;50.818;6.972;2023-03-14T15:07:22;6.80;58.20
15636;DHT22;7917;50.818;6.972;2023-03-14T15:09:49;6.90;1.00
15636;DHT22;7917;50.818;6.972;2023-03-14T15:12:18;6.80;99.90
15636;DHT22;7917;50.818;6.972;2023-03-14T15:14:46;6.60;99.90
15636;DHT22;7917;50.818;6.972;2023-03-14T15:17:18;6.70;1.00
15636;DHT22;7917;50.818;6.972;2023-03-14T15:19:45;6.60;1.00
15636;DHT22;7917;50.818;6.972;2023-03-14T15:22:12;6.80;1.00
15636;DHT22;7917;50.818;6.972;2023-03-14T15:24:40;6.90;1.00
15636;DHT22;7917;50.818;6.972;2023-03-14T15:27:13;6.90;1.00
15636;DHT22;7917;50.818;6.972;2023-03-14T15:29:40;6.90;1.00
15636;DHT22;7917;50.818;6.972;2023-03-14T15:32:11;6.90;1.00
15636;DHT22;7917;50.818;6.972;2023-03-14T15:34:38;6.90;99.90
15636;DHT22;7917;50.818;6.972;2023-03-14T15:37:08;6.80;99.90
15636;DHT22;7917;50.818;6.972;2023-03-14T15:39:35;6.90;1.00
15636;DHT22;7917;50.818;6.972;2023-03-14T15:42:01;6.80;1.00
15636;DHT22;7917;50.818;6.972;2023-03-14T15:44:29;6.80;1.00
15636;DHT22;7917;50.818;6.972;2023-03-14T15:46:56;6.80;99.90
15636;DHT22;7917;50.818;6.972;2023-03-14T15:49:22;6.70;99.90
15636;DHT22;7917;50.818;6.972;2023-03-14T15:51:49;6.70;1.00
15636;DHT22;7917;50.818;6.972;2023-03-14T15:54:16;6.60;1.00
15636;DHT22;7917;50.818;6.972;2023-03-14T15:56:47;6.60;1.00
15636;DHT22;7917;50.818;6.972;2023-03-14T15:59:13;6.60;1.00
15636;DHT22;7917;50.818;6.972;2023-03-14T16:01:40;6.60;1.00
15636;DHT22;7917;50.818;6.972;2023-03-14T16:04:08;6.60;99.90
15636;DHT22;7917;50.818;6.972;2023-03-14T16:06:34;6.60;99.90
15636;DHT22;7917;50.818;6.972;2023-03-14T16:09:02;6.60;1.00
15636;DHT22;7917;50.818;6.972;2023-03-14T16:11:30;6.60;1.00
15636;DHT22;7917;50.818;6.972;2023-03-14T16:13:58;6.60;1.00
15636;DHT22;7917;50.818;6.972;2023-03-14T16:16:25;6.60;99.90
15636;DHT22;7917;50.818;6.972;2023-03-14T16:18:52;6.50;1.00
15636;DHT22;7917;50.818;6.972;2023-03-14T16:21:20;6.50;1.00
15636;DHT22;7917;50.818;6.972;2023-03-14T16:23:47;6.40;1.00
15636;DHT22;7917;50.818;6.972;2023-03-14T16:26:19;6.40;1.00
15636;DHT22;7917;50.818;6.972;2023-03-14T16:28:47;6.40;99.90
15636;DHT22;7917;50.818;6.972;2023-03-14T16:31:18;6.40;99.90
15636;DHT22;7917;50.818;6.972;2023-03-14T16:33:46;6.40;1.00